Terminal Aerodrome Forecast
Issued by NWS

Home | Current Version | Previous Version | Text Only | Print | Product List | Glossary On
Versions: 1 2 3 4 5 6 7 8 9 10 11 12
000
FTUS43 KICT 150500
TAFCNU
TAF
KCNU 150522Z 1506/1606 28004KT P6SM SKC
     FM152100 22012KT P6SM SKC
     FM160000 17011KT P6SM SCT250=

USA.gov is the U.S. government's official web portal to all federal, state and local government web resources and services.